createdAt,value
2018-06-13T00:00:42.343Z,79.74
2018-06-13T00:03:10.656Z,79.79
2018-06-13T00:05:39.177Z,81.97
2018-06-13T00:08:07.607Z,79.72
2018-06-13T00:10:36.083Z,79.19
2018-06-13T00:13:04.444Z,79.46
2018-06-13T00:15:32.849Z,80.65
2018-06-13T00:18:01.229Z,80.69
2018-06-13T00:20:29.576Z,80.05
2018-06-13T00:22:57.969Z,80.53
2018-06-13T00:25:26.361Z,79.94
2018-06-13T00:27:55.732Z,82.19
2018-06-13T00:30:24.044Z,80.23
2018-06-13T00:32:53.404Z,80.25
2018-06-13T00:35:21.732Z,79.26
2018-06-13T00:37:50.205Z,81.20
2018-06-13T00:40:18.551Z,82.22
2018-06-13T00:42:47.008Z,82.27
2018-06-13T00:45:15.367Z,81.16
2018-06-13T00:47:43.729Z,80.82
2018-06-13T00:50:12.097Z,81.10
2018-06-13T00:52:40.421Z,82.41
2018-06-13T00:55:08.789Z,82.54
2018-06-13T00:57:37.144Z,80.14
2018-06-13T01:00:05.508Z,79.99
2018-06-13T01:02:33.873Z,82.22
2018-06-13T01:05:02.225Z,81.59
2018-06-13T01:07:30.598Z,83.27
2018-06-13T01:09:58.968Z,83.23
2018-06-13T01:12:27.283Z,83.87
2018-06-13T01:14:55.594Z,84.23
2018-06-13T01:17:24.827Z,84.58
2018-06-13T01:19:54.013Z,85.30
2018-06-13T01:22:23.229Z,85.69
2018-06-13T01:24:52.412Z,86.16
2018-06-13T01:27:21.712Z,86.22
2018-06-13T01:29:50.912Z,85.72
2018-06-13T01:32:19.256Z,86.72
2018-06-13T01:34:47.633Z,85.58
2018-06-13T01:37:15.993Z,79.96
2018-06-13T01:39:45.320Z,84.11
2018-06-13T01:42:13.700Z,84.79
2018-06-13T01:44:42.945Z,79.01
2018-06-13T01:47:12.269Z,78.82
2018-06-13T01:49:40.580Z,81.28
2018-06-13T01:52:09.076Z,77.86
2018-06-13T01:54:37.540Z,78.33
2018-06-13T01:57:05.848Z,79.64
2018-06-13T01:59:34.156Z,81.67
2018-06-13T02:02:02.458Z,79.83
2018-06-13T02:04:30.768Z,83.06
2018-06-13T02:06:59.072Z,79.74
2018-06-13T02:09:27.413Z,80.63
2018-06-13T02:11:55.804Z,77.27
2018-06-13T02:14:24.181Z,75.28
2018-06-13T02:16:52.561Z,75.60
2018-06-13T02:19:20.860Z,74.87
2018-06-13T02:21:50.056Z,74.61
2018-06-13T02:24:18.395Z,74.46
2018-06-13T02:26:46.693Z,74.33
2018-06-13T02:29:15.825Z,72.91
2018-06-13T02:31:44.133Z,73.13
2018-06-13T02:34:12.454Z,73.19
2018-06-13T02:36:41.656Z,73.13
2018-06-13T02:39:10.021Z,73.30
2018-06-13T02:41:39.333Z,73.64
2018-06-13T02:44:07.700Z,72.54
2018-06-13T02:46:36.008Z,73.10
2018-06-13T02:49:05.388Z,72.51
2018-06-13T02:51:34.761Z,73.63
2018-06-13T02:54:03.117Z,73.28
2018-06-13T02:56:31.446Z,73.10
2018-06-13T02:58:59.817Z,73.28
2018-06-13T03:01:28.200Z,74.13
2018-06-13T03:03:56.508Z,73.87
2018-06-13T03:06:24.808Z,74.33
2018-06-13T03:08:53.112Z,75.11
2018-06-13T03:11:21.412Z,73.61
2018-06-13T03:13:49.799Z,75.44
2018-06-13T03:16:18.112Z,77.33
2018-06-13T03:18:46.455Z,77.98
2018-06-13T03:21:14.766Z,79.91
2018-06-13T03:23:43.160Z,78.74
2018-06-13T03:26:12.980Z,80.82
2018-06-13T03:28:41.316Z,80.19
2018-06-13T03:31:09.712Z,79.20
2018-06-13T03:33:39.089Z,79.61
2018-06-13T03:36:07.480Z,80.72
2018-06-13T03:38:35.847Z,77.12
2018-06-13T03:41:04.208Z,76.33
2018-06-13T03:43:33.364Z,76.39
2018-06-13T03:46:01.707Z,74.30
2018-06-13T03:48:30.026Z,75.31
2018-06-13T03:50:58.332Z,74.60
2018-06-13T03:53:26.637Z,75.53
2018-06-13T03:55:55.121Z,74.30
2018-06-13T03:58:24.424Z,75.02
2018-06-13T04:00:53.741Z,73.70
2018-06-13T04:03:22.044Z,74.73
2018-06-13T04:05:51.220Z,74.01
2018-06-13T04:08:20.417Z,74.81
2018-06-13T04:10:49.585Z,73.72
2018-06-13T04:13:17.893Z,74.80
2018-06-13T04:15:47.090Z,75.09
2018-06-13T04:18:16.294Z,74.21
2018-06-13T04:20:44.596Z,75.53
2018-06-13T04:23:12.900Z,74.59
2018-06-13T04:25:41.321Z,75.72
2018-06-13T04:28:10.544Z,73.65
2018-06-13T04:30:39.020Z,74.63
2018-06-13T04:33:07.480Z,74.85
2018-06-13T04:35:35.788Z,74.40
2018-06-13T04:38:04.141Z,73.71
2018-06-13T04:40:32.489Z,72.80
2018-06-13T04:43:07.584Z,72.67
2018-06-13T04:45:35.899Z,73.95
2018-06-13T04:48:05.196Z,71.23
2018-06-13T04:50:33.502Z,71.66
2018-06-13T04:53:01.804Z,71.03
2018-06-13T04:55:30.128Z,71.36
2018-06-13T04:57:58.572Z,71.17
2018-06-13T05:00:26.924Z,71.71
2018-06-13T05:02:55.338Z,72.01
2018-06-13T05:05:24.641Z,71.85
2018-06-13T05:07:52.959Z,71.83
2018-06-13T05:10:21.313Z,72.49
2018-06-13T05:12:49.616Z,71.88
2018-06-13T05:15:17.961Z,72.11
2018-06-13T05:17:46.276Z,71.46
2018-06-13T05:20:14.710Z,71.95
2018-06-13T05:22:43.954Z,71.83
2018-06-13T05:25:13.411Z,71.02
2018-06-13T05:27:41.715Z,71.79
2018-06-13T05:30:10.074Z,72.01
2018-06-13T05:32:38.376Z,73.15
2018-06-13T05:35:06.712Z,73.10
2018-06-13T05:37:35.009Z,72.85
2018-06-13T05:40:04.402Z,72.26
2018-06-13T05:42:33.668Z,70.67
2018-06-13T05:45:02.969Z,71.74
2018-06-13T05:47:32.173Z,70.43
2018-06-13T05:50:00.556Z,70.23
2018-06-13T05:52:28.933Z,70.59
2018-06-13T05:54:57.455Z,69.82
2018-06-13T05:57:25.753Z,68.91
2018-06-13T05:59:54.994Z,69.23
2018-06-13T06:02:23.318Z,68.82
2018-06-13T06:04:51.641Z,67.80
2018-06-13T06:07:19.968Z,67.41
2018-06-13T06:09:48.288Z,67.47
2018-06-13T06:12:17.168Z,66.65
2018-06-13T06:14:45.734Z,65.06
2018-06-13T06:17:14.381Z,65.30
2018-06-13T06:19:42.724Z,71.14
2018-06-13T06:22:11.097Z,67.86
2018-06-13T06:24:40.272Z,68.24
2018-06-13T06:27:09.417Z,69.18
2018-06-13T06:29:38.668Z,67.82
2018-06-13T06:32:07.048Z,70.08
2018-06-13T06:34:35.381Z,67.17
2018-06-13T06:37:03.788Z,66.02
2018-06-13T06:39:33.069Z,68.89
2018-06-13T06:42:01.425Z,66.35
2018-06-13T06:44:30.746Z,65.61
2018-06-13T06:47:00.121Z,66.31
2018-06-13T06:49:29.453Z,65.87
2018-06-13T06:51:58.752Z,67.84
2018-06-13T06:54:27.990Z,66.48
2018-06-13T06:56:57.224Z,66.48
2018-06-13T06:59:25.568Z,67.16
2018-06-13T07:01:54.901Z,68.13
2018-06-13T07:04:24.236Z,67.25
2018-06-13T07:06:53.635Z,67.56
2018-06-13T07:09:22.809Z,68.30
2018-06-13T07:11:52.018Z,68.68
2018-06-13T07:14:21.437Z,70.19
2018-06-13T07:16:50.758Z,68.95
2018-06-13T07:19:20.206Z,67.57
2018-06-13T07:21:49.445Z,68.30
2018-06-13T07:24:18.664Z,68.32
2018-06-13T07:26:46.988Z,69.89
2018-06-13T07:29:15.375Z,68.23
2018-06-13T07:31:46.117Z,68.54
2018-06-13T07:34:14.480Z,69.45
2018-06-13T07:36:42.792Z,67.74
2018-06-13T07:39:11.102Z,67.07
2018-06-13T07:41:39.412Z,66.99
2018-06-13T07:44:07.741Z,67.00
2018-06-13T07:46:36.246Z,67.23
2018-06-13T07:49:04.560Z,65.84
2018-06-13T07:51:32.897Z,65.92
2018-06-13T07:54:01.212Z,67.69
2018-06-13T07:56:29.560Z,65.57
2018-06-13T07:58:57.881Z,65.37
2018-06-13T08:01:26.196Z,64.87
2018-06-13T08:03:55.510Z,65.95
2018-06-13T08:06:23.818Z,64.80
2018-06-13T08:08:52.158Z,65.34
2018-06-13T08:11:20.469Z,63.38
2018-06-13T08:13:48.777Z,64.40
2018-06-13T08:16:17.113Z,64.21
2018-06-13T08:18:45.941Z,62.93
2018-06-13T08:21:14.389Z,61.22
2018-06-13T08:23:42.700Z,61.81
2018-06-13T08:26:11.071Z,62.94
2018-06-13T08:28:39.437Z,61.49
2018-06-13T08:31:07.865Z,60.37
2018-06-13T08:33:36.233Z,58.80
2018-06-13T08:36:04.680Z,60.59
2018-06-13T08:38:33.073Z,60.28
2018-06-13T08:41:01.393Z,58.38
2018-06-13T08:43:31.730Z,59.81
2018-06-13T08:46:00.041Z,58.70
2018-06-13T08:48:42.687Z,57.72
2018-06-13T08:51:11.095Z,58.81
2018-06-13T08:53:39.452Z,59.12
2018-06-13T08:56:07.773Z,57.32
2018-06-13T08:58:36.128Z,58.32
2018-06-13T09:01:05.340Z,60.39
2018-06-13T09:03:34.633Z,61.05
2018-06-13T09:06:03.813Z,60.72
2018-06-13T09:08:32.132Z,60.24
2018-06-13T09:11:00.445Z,58.83
2018-06-13T09:13:28.864Z,59.47
2018-06-13T09:15:57.184Z,56.85
2018-06-13T09:18:25.520Z,61.40
2018-06-13T09:20:53.840Z,54.07
2018-06-13T09:23:22.153Z,52.42
2018-06-13T09:25:50.458Z,60.10
2018-06-13T09:28:19.701Z,54.57
2018-06-13T09:30:48.016Z,57.01
2018-06-13T09:33:16.320Z,56.18
2018-06-13T09:35:44.629Z,57.53
2018-06-13T09:38:12.949Z,55.52
2018-06-13T09:40:41.351Z,54.70
2018-06-13T09:43:09.692Z,54.86
2018-06-13T09:45:44.542Z,58.23
2018-06-13T09:48:13.967Z,53.35
2018-06-13T09:50:43.162Z,54.90
2018-06-13T09:53:11.505Z,52.98
2018-06-13T09:55:39.818Z,53.02
2018-06-13T09:58:08.158Z,54.85
2018-06-13T10:00:41.771Z,53.74
2018-06-13T10:03:10.192Z,55.82
2018-06-13T10:05:38.557Z,55.43
2018-06-13T10:08:06.943Z,57.35
2018-06-13T10:10:35.309Z,57.99
2018-06-13T10:13:03.632Z,58.52
2018-06-13T10:15:31.960Z,57.98
2018-06-13T10:18:00.373Z,56.63
2018-06-13T10:20:28.685Z,56.48
2018-06-13T10:22:57.013Z,60.88
2018-06-13T10:25:25.366Z,54.68
2018-06-13T10:27:53.749Z,52.88
2018-06-13T10:30:22.196Z,53.51
2018-06-13T10:32:50.531Z,57.35
2018-06-13T10:35:18.861Z,54.82
2018-06-13T10:37:47.168Z,57.55
2018-06-13T10:40:15.561Z,54.50
2018-06-13T10:42:43.876Z,53.62
2018-06-13T10:45:12.189Z,54.67
2018-06-13T10:47:40.611Z,52.96
2018-06-13T10:50:09.801Z,51.78
2018-06-13T10:52:38.149Z,53.49
2018-06-13T10:55:06.667Z,48.73
2018-06-13T10:57:35.005Z,49.56
2018-06-13T11:00:03.321Z,49.62
2018-06-13T11:02:31.625Z,49.72
2018-06-13T11:04:59.936Z,49.17
2018-06-13T11:07:28.260Z,51.69
2018-06-13T11:09:56.645Z,51.22
2018-06-13T11:12:25.018Z,50.82
2018-06-13T11:14:53.393Z,51.38
2018-06-13T11:17:21.780Z,50.43
2018-06-13T11:19:50.157Z,52.89
2018-06-13T11:22:18.460Z,51.81
2018-06-13T11:24:46.828Z,49.07
2018-06-13T11:27:15.144Z,49.74
2018-06-13T11:29:43.474Z,49.18
2018-06-13T11:32:11.793Z,51.23
2018-06-13T11:34:40.109Z,50.13
2018-06-13T11:37:08.434Z,50.00
2018-06-13T11:39:37.701Z,50.06
2018-06-13T11:42:06.087Z,50.94
2018-06-13T11:44:34.468Z,53.42
2018-06-13T11:47:02.934Z,50.96
2018-06-13T11:49:31.261Z,51.19
2018-06-13T11:51:59.581Z,51.07
2018-06-13T11:54:27.981Z,51.93
2018-06-13T11:56:56.285Z,53.52
2018-06-13T11:59:25.472Z,53.72
2018-06-13T12:01:54.821Z,54.06
2018-06-13T12:04:24.142Z,53.74
2018-06-13T12:06:53.589Z,55.66
2018-06-13T12:09:22.809Z,56.04
2018-06-13T12:11:52.124Z,57.27
2018-06-13T12:14:21.301Z,55.91
2018-06-13T12:16:50.521Z,55.48
2018-06-13T12:19:19.749Z,56.26
2018-06-13T12:21:49.096Z,56.51
2018-06-13T12:24:18.440Z,56.95
2018-06-13T12:26:47.716Z,58.38
2018-06-13T12:29:17.097Z,58.26
2018-06-13T12:31:46.401Z,59.94
2018-06-13T12:34:15.584Z,59.77
2018-06-13T12:36:44.856Z,60.70
2018-06-13T12:39:13.172Z,61.68
2018-06-13T12:41:41.517Z,62.97
2018-06-13T12:44:10.692Z,64.37
2018-06-13T12:46:39.920Z,64.55
2018-06-13T12:49:08.261Z,60.33
2018-06-13T12:51:36.608Z,60.22
2018-06-13T12:54:04.917Z,60.04
2018-06-13T12:56:34.269Z,59.46
2018-06-13T12:59:02.721Z,59.50
2018-06-13T13:01:31.885Z,60.57
2018-06-13T13:04:01.225Z,60.49
2018-06-13T13:06:30.404Z,59.38
2018-06-13T13:08:58.766Z,58.95
2018-06-13T13:11:27.219Z,58.43
2018-06-13T13:13:56.550Z,58.29
2018-06-13T13:16:24.891Z,59.59
2018-06-13T13:18:53.276Z,61.16
2018-06-13T13:21:21.685Z,61.49
2018-06-13T13:23:50.069Z,62.04
2018-06-13T13:26:18.429Z,62.27
2018-06-13T13:28:46.813Z,62.16
2018-06-13T13:31:15.993Z,63.78
2018-06-13T13:33:44.336Z,61.60
2018-06-13T13:36:12.637Z,61.07
2018-06-13T13:38:40.969Z,62.50
2018-06-13T13:41:09.377Z,63.48
2018-06-13T13:43:37.729Z,62.76
2018-06-13T13:46:06.052Z,63.76
2018-06-13T13:48:35.438Z,63.87
2018-06-13T13:51:04.620Z,64.04
2018-06-13T13:53:33.058Z,63.85
2018-06-13T13:56:01.457Z,63.52
2018-06-13T13:58:29.847Z,63.47
2018-06-13T14:00:58.156Z,64.60
2018-06-13T14:03:26.465Z,66.43
2018-06-13T14:05:54.824Z,64.01
2018-06-13T14:08:23.137Z,63.71
2018-06-13T14:10:52.281Z,65.62
2018-06-13T14:13:20.596Z,64.08
2018-06-13T14:15:48.907Z,64.09
2018-06-13T14:18:18.252Z,64.45
2018-06-13T14:20:46.577Z,63.96
2018-06-13T14:23:14.876Z,65.97
2018-06-13T14:25:43.189Z,65.58
2018-06-13T14:28:12.524Z,63.84
2018-06-13T14:30:42.629Z,64.25
2018-06-13T14:33:11.968Z,63.52
2018-06-13T14:35:40.348Z,64.88
2018-06-13T14:38:08.724Z,64.82
2018-06-13T14:40:37.119Z,65.41
2018-06-13T14:43:07.613Z,66.26
2018-06-13T14:45:36.942Z,66.73
2018-06-13T14:48:05.261Z,67.45
2018-06-13T14:50:34.481Z,68.86
2018-06-13T14:53:02.908Z,68.08
2018-06-13T14:55:36.340Z,66.57
2018-06-13T14:58:05.697Z,65.77
2018-06-13T15:00:34.965Z,65.63
2018-06-13T15:03:04.177Z,66.61
2018-06-13T15:05:32.541Z,67.87
2018-06-13T15:08:01.031Z,66.40
2018-06-13T15:10:29.360Z,67.83
2018-06-13T15:12:57.698Z,65.45
2018-06-13T15:15:26.913Z,64.12
2018-06-13T15:17:55.276Z,64.09
2018-06-13T15:20:24.541Z,64.64
2018-06-13T15:22:53.909Z,65.49
2018-06-13T15:25:23.132Z,65.70
2018-06-13T15:27:52.649Z,64.43
2018-06-13T15:30:20.956Z,65.31
2018-06-13T15:32:50.298Z,65.89
2018-06-13T15:35:19.582Z,65.11
2018-06-13T15:37:48.005Z,64.09
2018-06-13T15:40:17.276Z,64.76
2018-06-13T15:42:46.499Z,64.80
2018-06-13T15:45:14.829Z,65.58
2018-06-13T15:47:43.141Z,66.06
2018-06-13T15:50:11.493Z,65.84
2018-06-13T15:52:40.749Z,66.51
2018-06-13T15:55:10.034Z,68.56
2018-06-13T15:57:38.509Z,67.83
2018-06-13T16:00:08.958Z,68.46
2018-06-13T16:02:37.326Z,68.12
2018-06-13T16:05:05.913Z,67.87
2018-06-13T16:07:34.236Z,67.78
2018-06-13T16:10:02.546Z,69.38
2018-06-13T16:12:30.869Z,67.16
2018-06-13T16:15:00.281Z,67.93
2018-06-13T16:17:29.473Z,68.18
2018-06-13T16:19:57.805Z,69.90
2018-06-13T16:22:26.178Z,69.19
2018-06-13T16:24:54.484Z,71.61
2018-06-13T16:27:23.851Z,69.36
2018-06-13T16:29:53.163Z,68.83
2018-06-13T16:32:22.388Z,69.14
2018-06-13T16:34:51.653Z,68.75
2018-06-13T16:37:20.933Z,68.70
2018-06-13T16:39:49.249Z,69.51
2018-06-13T16:42:17.597Z,69.09
2018-06-13T16:44:45.949Z,69.14
2018-06-13T16:47:15.265Z,69.94
2018-06-13T16:49:43.611Z,69.87
2018-06-13T16:52:23.157Z,69.63
2018-06-13T16:55:01.580Z,69.86
2018-06-13T16:57:29.950Z,70.55
2018-06-13T16:59:58.265Z,70.13
2018-06-13T17:02:26.665Z,71.27
2018-06-13T17:04:54.965Z,70.03
2018-06-13T17:07:23.272Z,70.46
2018-06-13T17:09:51.584Z,69.37
2018-06-13T17:12:19.981Z,69.75
2018-06-13T17:14:48.304Z,69.86
2018-06-13T17:17:16.621Z,70.75
2018-06-13T17:19:44.947Z,69.30
2018-06-13T17:22:13.277Z,69.19
2018-06-13T17:24:41.665Z,69.05
2018-06-13T17:27:10.016Z,69.65
2018-06-13T17:29:38.321Z,70.63
2018-06-13T17:32:06.633Z,70.44
2018-06-13T17:34:35.593Z,68.95
2018-06-13T17:37:04.037Z,69.32
2018-06-13T17:39:33.330Z,68.47
2018-06-13T17:42:02.802Z,68.51
2018-06-13T17:44:31.142Z,67.99
2018-06-13T17:46:59.556Z,68.20
2018-06-13T17:49:28.952Z,69.42
2018-06-13T17:51:57.360Z,69.33
2018-06-13T17:54:25.729Z,68.52
2018-06-13T17:56:54.293Z,68.96
2018-06-13T17:59:22.681Z,69.11
2018-06-13T18:01:51.027Z,68.57
2018-06-13T18:04:19.418Z,69.46
2018-06-13T18:06:47.785Z,69.84
2018-06-13T18:09:16.193Z,68.94
2018-06-13T18:11:44.601Z,69.38
2018-06-13T18:14:12.918Z,69.37
2018-06-13T18:16:41.360Z,69.43
2018-06-13T18:19:09.723Z,71.63
2018-06-13T18:21:38.094Z,68.79
2018-06-13T18:24:06.522Z,68.65
2018-06-13T18:26:35.030Z,70.21
2018-06-13T18:29:03.548Z,70.24
2018-06-13T18:31:31.889Z,71.20
2018-06-13T18:34:01.187Z,70.47
2018-06-13T18:36:29.500Z,70.77
2018-06-13T18:38:59.068Z,70.27
2018-06-13T18:41:28.001Z,70.36
2018-06-13T18:43:56.485Z,70.86
2018-06-13T18:46:24.857Z,71.74
